Time;durP1;ratioP1;P1;durP2;ratioP2;P2;SDS_P1;SDS_P2;PMS_P1;PMS_P2;Temp;Humidity;BMP_temperature;BMP_pressure;BME280_temperature;BME280_humidity;BME280_pressure;Samples;Min_cycle;Max_cycle;Signal;HPM_P1;HPM_P2
2022/06/29 00:00:06;;;;;;;7.82;3.50;;;;;;;;;;5080176;28;20079;-60
2022/06/29 00:02:34;;;;;;;9.80;3.85;;;;;;;;;;5080591;28;20056;-60
2022/06/29 00:05:08;;;;;;;13.73;4.57;;;;;;;;;;5076189;28;20083;-60
2022/06/29 00:07:36;;;;;;;11.20;4.40;;;;;;;;;;5079607;28;20072;-60
2022/06/29 00:10:04;;;;;;;13.40;4.78;;;;;;;;;;5057884;28;20097;-60
2022/06/29 00:12:38;;;;;;;8.85;4.05;;;;;;;;;;5079451;28;20504;-60
2022/06/29 00:15:06;;;;;;;11.80;4.65;;;;;;;;;;5086449;28;20121;-60
2022/06/29 00:17:33;;;;;;;;;;;;;;;;;;5085573;28;20113;-49
2022/06/29 00:20:12;;;;;;;12.60;4.43;;;;;;;;;;5083680;28;19919;-49
2022/06/29 00:22:42;;;;;;;6.97;4.30;;;;;;;;;;5083647;28;20386;-49
2022/06/29 00:25:17;;;;;;;11.38;4.80;;;;;;;;;;5078828;28;20075;-51
2022/06/29 00:27:44;;;;;;;7.25;5.07;;;;;;;;;;5077082;28;20527;-48
2022/06/29 00:30:12;;;;;;;13.27;4.60;;;;;;;;;;5086534;28;20071;-51
2022/06/29 00:32:46;;;;;;;10.63;5.15;;;;;;;;;;5083551;28;20119;-60
2022/06/29 00:35:13;;;;;;;8.90;5.10;;;;;;;;;;5082988;28;20102;-71
2022/06/29 00:37:40;;;;;;;7.22;4.40;;;;;;;;;;5085430;28;20049;-71
2022/06/29 00:40:28;;;;;;;9.95;5.32;;;;;;;;;;5074094;28;20047;-71
2022/06/29 00:43:02;;;;;;;13.13;5.28;;;;;;;;;;5044215;28;20517;-71
2022/06/29 00:45:36;;;;;;;15.98;5.43;;;;;;;;;;5036312;28;20080;-71
2022/06/29 00:48:03;;;;;;;11.70;5.00;;;;;;;;;;5061528;28;20565;-72
2022/06/29 00:50:32;;;;;;;10.35;5.80;;;;;;;;;;5059561;28;20320;-71
2022/06/29 00:53:06;;;;;;;14.30;5.80;;;;;;;;;;5065895;28;20048;-52
2022/06/29 00:55:36;;;;;;;12.23;5.45;;;;;;;;;;5062202;28;20246;-53
2022/06/29 00:58:05;;;;;;;14.02;6.28;;;;;;;;;;5067860;28;20502;-49
2022/06/29 01:00:39;;;;;;;17.15;7.22;;;;;;;;;;5058569;28;20040;-50
2022/06/29 01:03:07;;;;;;;12.68;6.50;;;;;;;;;;5063329;28;20084;-49
2022/06/29 01:05:35;;;;;;;12.82;6.82;;;;;;;;;;5054140;28;20113;-49
2022/06/29 01:08:09;;;;;;;13.95;7.18;;;;;;;;;;5058890;28;20086;-47
2022/06/29 01:10:36;;;;;;;19.00;7.75;;;;;;;;;;5063234;28;20145;-64
2022/06/29 01:13:03;;;;;;;21.80;7.28;;;;;;;;;;5062429;28;20210;-72
2022/06/29 01:15:37;;;;;;;13.30;6.20;;;;;;;;;;5065719;28;20056;-71
2022/06/29 01:18:04;;;;;;;15.18;6.60;;;;;;;;;;5065353;28;20482;-71
2022/06/29 01:20:31;;;;;;;12.93;6.22;;;;;;;;;;5065993;28;20143;-72
2022/06/29 06:43:42;;;;;;;13.95;2.67;;;;;;;;;;5882996;22;8366747;-51
2022/06/29 06:46:17;;;;;;;13.55;2.95;;;;;;;;;;6203219;23;20033;-52
2022/06/29 06:48:44;;;;;;;;;;;;;;;;;;6179563;23;20080;-49
2022/06/29 06:51:12;;;;;;;4.55;2.00;;;;;;;;;;6174849;23;19920;-49
2022/06/29 06:53:46;;;;;;;6.43;2.17;;;;;;;;;;6175613;23;20067;-67
2022/06/29 06:56:14;;;;;;;12.00;2.70;;;;;;;;;;6176514;23;20762;-48
2022/06/29 06:58:42;;;;;;;7.65;2.40;;;;;;;;;;6175883;23;20396;-48
2022/06/29 07:01:21;;;;;;;9.35;2.10;;;;;;;;;;6174276;23;20086;-49
2022/06/29 07:03:49;;;;;;;5.32;2.00;;;;;;;;;;6176437;23;20021;-51
2022/06/29 07:06:23;;;;;;;11.50;2.50;;;;;;;;;;6175618;23;20103;-50
2022/06/29 07:08:50;;;;;;;7.75;2.00;;;;;;;;;;6175836;23;20025;-52
2022/06/29 07:11:18;;;;;;;7.72;1.95;;;;;;;;;;6176999;23;20041;-49
2022/06/29 07:13:52;;;;;;;4.93;1.70;;;;;;;;;;6178279;23;20052;-65
2022/06/29 07:16:19;;;;;;;9.45;2.30;;;;;;;;;;6177850;23;20048;-58
2022/06/29 07:18:48;;;;;;;7.40;2.80;;;;;;;;;;6176413;23;20029;-58
2022/06/29 07:21:22;;;;;;;5.65;1.98;;;;;;;;;;6177406;23;20021;-58
2022/06/29 07:23:49;;;;;;;5.32;2.00;;;;;;;;;;6177835;23;20536;-57
2022/06/29 07:26:16;;;;;;;7.63;2.05;;;;;;;;;;6176756;23;20052;-58
2022/06/29 07:28:50;;;;;;;8.60;1.98;;;;;;;;;;6174852;23;20024;-58
2022/06/29 07:31:18;;;;;;;6.53;2.10;;;;;;;;;;6177798;23;20235;-58
2022/06/29 07:33:45;;;;;;;6.28;1.90;;;;;;;;;;6176690;23;20095;-51
2022/06/29 07:36:29;;;;;;;3.53;1.65;;;;;;;;;;6175806;23;20047;-49
2022/06/29 07:38:56;;;;;;;6.80;1.80;;;;;;;;;;6177865;23;20029;-51
2022/06/29 07:41:32;;;;;;;6.30;1.95;;;;;;;;;;6176939;23;20056;-53
2022/06/29 07:44:06;;;;;;;7.03;1.63;;;;;;;;;;6178648;22;20035;-50
2022/06/29 07:46:41;;;;;;;6.88;2.42;;;;;;;;;;6176433;23;20029;-51
2022/06/29 07:49:08;;;;;;;6.93;1.92;;;;;;;;;;6177623;23;20023;-59
2022/06/29 07:51:36;;;;;;;7.65;1.70;;;;;;;;;;6177561;23;20093;-58
2022/06/29 07:54:10;;;;;;;6.93;1.73;;;;;;;;;;6175636;23;20025;-65
2022/06/29 07:56:37;;;;;;;6.00;1.60;;;;;;;;;;6177783;23;20095;-63
2022/06/29 07:59:19;;;;;;;5.30;1.38;;;;;;;;;;6177866;23;20478;-65
2022/06/29 08:01:53;;;;;;;3.03;1.58;;;;;;;;;;6175706;23;20029;-65
2022/06/29 08:04:20;;;;;;;5.22;1.48;;;;;;;;;;6177478;23;20025;-65
2022/06/29 08:07:06;;;;;;;6.95;1.55;;;;;;;;;;6177973;23;20021;-65
2022/06/29 08:09:41;;;;;;;3.08;1.40;;;;;;;;;;6175053;23;20056;-58
2022/06/29 08:12:08;;;;;;;4.68;1.60;;;;;;;;;;6176094;23;20052;-66
2022/06/29 08:14:35;;;;;;;5.72;1.73;;;;;;;;;;6176386;23;20055;-66
2022/06/29 08:17:10;;;;;;;10.52;2.03;;;;;;;;;;6177113;23;20025;-66
2022/06/29 08:19:37;;;;;;;2.65;1.60;;;;;;;;;;6178033;23;20100;-63
2022/06/29 08:22:05;;;;;;;6.18;2.03;;;;;;;;;;6177609;23;20429;-66
2022/06/29 08:24:39;;;;;;;3.92;1.50;;;;;;;;;;6176449;23;20028;-65
2022/06/29 08:27:06;;;;;;;4.45;1.90;;;;;;;;;;6175619;23;20400;-52
2022/06/29 08:29:54;;;;;;;3.42;1.55;;;;;;;;;;6177630;23;20028;-50
2022/06/29 08:32:28;;;;;;;6.88;1.60;;;;;;;;;;6176369;23;20028;-53
2022/06/29 08:35:00;;;;;;;5.57;1.50;;;;;;;;;;6178241;23;20021;-53
2022/06/29 08:37:39;;;;;;;3.97;1.33;;;;;;;;;;6174720;23;20025;-50
2022/06/29 08:40:06;;;;;;;;;;;;;;;;;;6178063;23;20032;-51
2022/06/29 08:42:35;;;;;;;2.90;1.35;;;;;;;;;;6177443;22;19947;-49
2022/06/29 08:45:17;;;;;;;4.32;1.60;;;;;;;;;;6177653;23;20136;-52
2022/06/29 08:47:45;;;;;;;5.85;1.88;;;;;;;;;;6173761;23;20029;-48
2022/06/29 08:50:19;;;;;;;5.70;1.70;;;;;;;;;;6175430;23;20029;-58
2022/06/29 08:52:47;;;;;;;4.13;1.55;;;;;;;;;;6175817;23;20029;-59
2022/06/29 08:55:14;;;;;;;5.43;1.50;;;;;;;;;;6177055;23;20021;-59
2022/06/29 08:57:48;;;;;;;5.20;2.05;;;;;;;;;;6177372;23;20079;-58
2022/06/29 09:00:15;;;;;;;;;;;;;;;;;;6176070;23;20024;-59
2022/06/29 09:02:45;;;;;;;6.50;1.75;;;;;;;;;;6175829;23;20306;-59
2022/06/29 09:05:19;;;;;;;3.10;1.33;;;;;;;;;;6173846;23;20028;-54
2022/06/29 09:07:46;;;;;;;4.60;1.70;;;;;;;;;;6175167;23;20071;-65
2022/06/29 09:10:18;;;;;;;4.88;1.65;;;;;;;;;;6175531;23;20024;-64
2022/06/29 09:12:52;;;;;;;3.08;1.23;;;;;;;;;;6175154;23;20020;-64
2022/06/29 09:15:38;;;;;;;3.35;1.20;;;;;;;;;;6175319;23;20020;-64
2022/06/29 09:18:23;;;;;;;4.65;1.60;;;;;;;;;;6176165;23;20021;-64
2022/06/29 09:20:55;;;;;;;3.20;1.33;;;;;;;;;;6176512;23;20017;-64
2022/06/29 09:23:29;;;;;;;3.55;1.52;;;;;;;;;;6174483;23;20025;-64
2022/06/29 09:25:57;;;;;;;2.97;1.17;;;;;;;;;;6176049;23;20440;-58
2022/06/29 09:28:25;;;;;;;4.82;1.60;;;;;;;;;;6175355;23;20071;-66
2022/06/29 09:30:59;;;;;;;5.25;1.40;;;;;;;;;;6175846;23;20679;-66
2022/06/29 09:33:28;;;;;;;4.45;1.80;;;;;;;;;;6176481;23;20029;-65
2022/06/29 09:36:08;;;;;;;5.47;1.40;;;;;;;;;;6173937;23;20091;-66
2022/06/29 09:38:48;;;;;;;5.97;1.45;;;;;;;;;;6174144;23;20079;-66
2022/06/29 09:41:16;;;;;;;3.45;1.48;;;;;;;;;;6176631;23;20079;-66
2022/06/29 09:44:02;;;;;;;4.72;1.10;;;;;;;;;;6178000;22;20020;-66
2022/06/29 09:46:36;;;;;;;5.82;1.40;;;;;;;;;;6175606;23;20442;-60
2022/06/29 09:49:11;;;;;;;2.67;1.25;;;;;;;;;;6176074;23;20021;-59
2022/06/29 09:51:39;;;;;;;2.95;1.15;;;;;;;;;;6176362;23;20036;-59
2022/06/29 09:54:07;;;;;;;4.07;1.35;;;;;;;;;;6176859;23;20033;-59
2022/06/29 09:56:51;;;;;;;3.85;1.30;;;;;;;;;;6174219;23;20029;-59
2022/06/29 10:02:39;;;;;;;4.63;1.27;;;;;;;;;;6176205;23;20095;-63
2022/06/29 10:05:06;;;;;;;3.58;1.27;;;;;;;;;;6176719;23;20095;-58
2022/06/29 10:07:35;;;;;;;3.08;1.25;;;;;;;;;;6147303;23;20423;-54
2022/06/29 10:10:13;;;;;;;4.63;1.40;;;;;;;;;;6174757;23;20072;-52
2022/06/29 10:15:52;;;;;;;5.68;1.27;;;;;;;;;;6174818;23;20017;-50
2022/06/29 10:18:35;;;;;;;2.85;1.15;;;;;;;;;;6176095;23;20029;-53
2022/06/29 10:21:14;;;;;;;4.35;1.35;;;;;;;;;;6175768;23;20028;-58
2022/06/29 10:23:53;;;;;;;1.77;1.23;;;;;;;;;;6176438;23;20039;-65
2022/06/29 10:26:30;;;;;;;3.42;1.20;;;;;;;;;;6174007;23;20729;-66
2022/06/29 10:29:17;;;;;;;4.85;1.10;;;;;;;;;;6174628;23;20025;-65
2022/06/29 10:31:53;;;;;;;4.65;1.50;;;;;;;;;;6176133;23;20398;-66
2022/06/29 10:37:11;;;;;;;4.03;1.20;;;;;;;;;;6174507;23;20116;-66
2022/06/29 10:39:50;;;;;;;2.60;1.20;;;;;;;;;;6175257;23;20021;-66
2022/06/29 10:45:17;;;;;;;4.28;1.40;;;;;;;;;;6174757;23;20032;-59
2022/06/29 10:47:58;;;;;;;4.05;1.23;;;;;;;;;;6177389;23;20494;-59
2022/06/29 10:50:26;;;;;;;3.95;1.50;;;;;;;;;;6176727;23;20021;-59
2022/06/29 10:53:10;;;;;;;2.17;1.05;;;;;;;;;;6176558;23;20056;-59
2022/06/29 10:55:42;;;;;;;4.78;1.20;;;;;;;;;;6178568;23;20095;-59
2022/06/29 10:58:17;;;;;;;5.43;1.45;;;;;;;;;;6177335;23;20032;-60
2022/06/29 11:00:48;;;;;;;5.30;1.13;;;;;;;;;;6176653;23;20518;-61
2022/06/29 11:03:17;;;;;;;5.40;1.60;;;;;;;;;;6176582;23;20029;-63
2022/06/29 11:17:39;;;;;;;2.97;1.10;;;;;;;;;;6176320;23;20028;-62
2022/06/29 11:19:58;;;;;;;1.80;0.95;;;;;;;;;;6176724;23;20048;-60
2022/06/29 11:22:32;;;;;;;3.03;1.25;;;;;;;;;;6175959;23;20021;-65
2022/06/29 11:25:00;;;;;;;2.85;0.93;;;;;;;;;;6176670;23;20044;-66
2022/06/29 11:27:35;;;;;;;2.40;1.10;;;;;;;;;;6177091;23;20079;-65
2022/06/29 11:30:10;;;;;;;2.47;1.05;;;;;;;;;;6174171;23;20029;-66
2022/06/29 11:32:42;;;;;;;6.07;1.52;;;;;;;;;;6177568;23;20032;-64
2022/06/29 11:35:23;;;;;;;4.13;1.30;;;;;;;;;;6175317;23;20075;-65
2022/06/29 11:37:50;;;;;;;1.98;1.13;;;;;;;;;;6175457;23;20021;-62
2022/06/29 11:40:35;;;;;;;5.65;1.13;;;;;;;;;;6175331;23;20029;-60
2022/06/29 11:43:10;;;;;;;5.85;1.35;;;;;;;;;;6175876;22;20036;-65
2022/06/29 11:45:46;;;;;;;4.93;1.27;;;;;;;;;;6175217;23;20028;-65
2022/06/29 11:48:15;;;;;;;2.15;0.80;;;;;;;;;;6177389;23;20021;-65
2022/06/29 11:50:43;;;;;;;5.28;1.00;;;;;;;;;;6177337;23;20021;-65
2022/06/29 11:53:37;;;;;;;4.60;1.27;;;;;;;;;;6177097;23;20629;-64
2022/06/29 11:56:15;;;;;;;3.85;1.23;;;;;;;;;;6175934;23;20120;-65
2022/06/29 11:58:50;;;;;;;5.63;1.55;;;;;;;;;;6177876;23;20029;-60
2022/06/29 12:01:19;;;;;;;5.10;1.33;;;;;;;;;;6176922;23;20414;-61
2022/06/29 12:03:50;;;;;;;3.97;1.30;;;;;;;;;;6177395;23;20021;-60
2022/06/29 12:06:25;;;;;;;4.32;1.15;;;;;;;;;;6176101;23;20029;-60
2022/06/29 12:08:53;;;;;;;4.50;1.52;;;;;;;;;;6151185;23;20048;-59
2022/06/29 12:11:21;;;;;;;4.78;1.50;;;;;;;;;;6177723;23;20079;-60
2022/06/29 12:13:55;;;;;;;3.83;1.52;;;;;;;;;;6176829;23;20028;-60
2022/06/29 12:16:22;;;;;;;2.85;1.30;;;;;;;;;;6177463;23;20254;-64
2022/06/29 12:18:49;;;;;;;;;;;;;;;;;;6177803;23;20033;-59
2022/06/29 12:21:26;;;;;;;6.45;1.45;;;;;;;;;;6175664;23;20388;-58
2022/06/29 12:23:53;;;;;;;5.30;1.30;;;;;;;;;;6176536;23;20032;-58
2022/06/29 12:26:21;;;;;;;3.17;1.60;;;;;;;;;;6172851;23;20025;-59
2022/06/29 12:28:56;;;;;;;7.40;1.52;;;;;;;;;;6175044;23;20474;-59
2022/06/29 12:31:23;;;;;;;3.70;1.20;;;;;;;;;;6177291;23;20402;-59
2022/06/29 12:33:50;;;;;;;4.20;1.30;;;;;;;;;;6177464;23;20025;-59
2022/06/29 12:36:44;;;;;;;4.10;1.45;;;;;;;;;;6176605;23;20028;-64
2022/06/29 12:39:11;;;;;;;12.05;1.33;;;;;;;;;;6173858;23;20021;-59
2022/06/29 12:41:45;;;;;;;3.67;1.17;;;;;;;;;;6176565;23;20025;-59
2022/06/29 12:44:12;;;;;;;;;;;;;;;;;;6179177;22;20021;-58
2022/06/29 12:46:46;;;;;;;6.40;1.67;;;;;;;;;;6175975;23;19999;-59
2022/06/29 12:49:21;;;;;;;4.72;1.50;;;;;;;;;;6175343;23;20025;-59
2022/06/29 12:51:49;;;;;;;3.13;1.30;;;;;;;;;;6176275;23;20021;-59
2022/06/29 12:54:17;;;;;;;4.53;1.42;;;;;;;;;;6176267;23;20021;-59
2022/06/29 12:56:51;;;;;;;1.83;1.05;;;;;;;;;;6176197;23;20494;-59
2022/06/29 12:59:19;;;;;;;;;;;;;;;;;;6176488;23;20060;-52
2022/06/29 13:01:47;;;;;;;4.65;1.50;;;;;;;;;;6177401;23;19916;-50
2022/06/29 13:04:21;;;;;;;4.25;1.50;;;;;;;;;;6175763;23;20079;-52
2022/06/29 13:06:49;;;;;;;5.47;1.50;;;;;;;;;;6175981;23;20040;-48
2022/06/29 13:09:17;;;;;;;3.75;1.48;;;;;;;;;;6176163;23;20025;-50
2022/06/29 13:11:51;;;;;;;3.75;1.55;;;;;;;;;;6177480;23;20029;-48
2022/06/29 13:14:18;;;;;;;;;;;;;;;;;;6176992;23;20064;-62
2022/06/29 13:16:47;;;;;;;3.57;1.43;;;;;;;;;;6176557;23;19916;-60
2022/06/29 13:19:21;;;;;;;5.47;1.30;;;;;;;;;;6176056;23;20504;-60
2022/06/29 13:21:48;;;;;;;3.58;1.30;;;;;;;;;;6177534;23;20029;-60
2022/06/29 13:24:15;;;;;;;;;;;;;;;;;;6176190;23;20052;-60
2022/06/29 13:26:54;;;;;;;3.85;1.40;;;;;;;;;;6176890;23;19920;-60
2022/06/29 13:29:22;;;;;;;5.32;1.17;;;;;;;;;;6176047;23;20112;-60
2022/06/29 13:31:56;;;;;;;3.97;1.55;;;;;;;;;;6177290;23;20023;-62
2022/06/29 13:34:26;;;;;;;;;;;;;;;;;;6175927;23;20056;-62
2022/06/29 13:36:53;;;;;;;6.95;1.35;;;;;;;;;;6176548;23;20002;-58
2022/06/29 13:39:27;;;;;;;4.90;1.70;;;;;;;;;;6176845;23;20025;-58
2022/06/29 13:41:54;;;;;;;;;;;;;;;;;;6178039;23;20399;-58
2022/06/29 13:44:25;;;;;;;5.60;1.40;;;;;;;;;;6176951;22;19920;-62
2022/06/29 13:46:59;;;;;;;3.00;1.27;;;;;;;;;;6176887;23;20670;-59
2022/06/29 13:49:27;;;;;;;3.80;1.27;;;;;;;;;;6175880;23;20028;-58
2022/06/29 13:51:55;;;;;;;3.47;1.27;;;;;;;;;;6176343;23;20111;-51
2022/06/29 13:54:29;;;;;;;3.25;1.42;;;;;;;;;;6175702;23;20020;-58
2022/06/29 13:56:56;;;;;;;6.43;1.30;;;;;;;;;;6176946;23;20017;-58
2022/06/29 13:59:24;;;;;;;3.95;1.20;;;;;;;;;;6175910;23;20479;-58
2022/06/29 14:01:59;;;;;;;3.00;1.20;;;;;;;;;;6176195;23;20075;-58
2022/06/29 14:04:26;;;;;;;3.00;1.35;;;;;;;;;;6173020;23;20028;-58
2022/06/29 14:06:53;;;;;;;2.53;1.10;;;;;;;;;;6174396;23;20028;-58
2022/06/29 14:09:48;;;;;;;5.65;1.33;;;;;;;;;;6173686;23;20474;-59
2022/06/29 14:12:15;;;;;;;;;;;;;;;;;;6177175;23;20025;-51
2022/06/29 14:14:49;;;;;;;3.60;1.40;;;;;;;;;;6176564;23;19924;-64
2022/06/29 14:17:16;;;;;;;2.95;1.10;;;;;;;;;;6175992;23;20575;-64
2022/06/29 14:19:43;;;;;;;4.18;1.20;;;;;;;;;;6175862;23;20083;-64
2022/06/29 14:22:18;;;;;;;5.35;1.08;;;;;;;;;;6176224;23;20032;-62
2022/06/29 14:24:45;;;;;;;5.22;1.20;;;;;;;;;;6176409;23;20534;-64
2022/06/29 14:27:12;;;;;;;;;;;;;;;;;;6175013;23;20025;-63
2022/06/29 14:29:47;;;;;;;4.13;1.15;;;;;;;;;;6176989;23;20018;-63
2022/06/29 14:32:14;;;;;;;;;;;;;;;;;;6176833;23;20036;-58
2022/06/29 14:34:53;;;;;;;3.63;1.70;;;;;;;;;;6176343;23;19927;-59
2022/06/29 14:37:27;;;;;;;5.53;1.55;;;;;;;;;;6175262;23;20634;-59
2022/06/29 14:39:54;;;;;;;;;;;;;;;;;;6177014;23;20102;-58
2022/06/29 14:42:22;;;;;;;2.67;1.15;;;;;;;;;;6175110;23;19917;-58
2022/06/29 14:45:02;;;;;;;2.58;1.20;;;;;;;;;;6178165;22;20088;-58
2022/06/29 14:47:30;;;;;;;3.90;1.25;;;;;;;;;;6175786;23;20328;-58
2022/06/29 14:50:04;;;;;;;3.50;1.38;;;;;;;;;;6176179;23;20025;-58
2022/06/29 14:52:33;;;;;;;6.40;1.52;;;;;;;;;;6175820;23;20017;-61
2022/06/29 14:55:00;;;;;;;3.90;1.67;;;;;;;;;;6175978;23;20056;-61
2022/06/29 14:57:34;;;;;;;5.20;1.20;;;;;;;;;;6175532;23;20021;-61
2022/06/29 15:00:01;;;;;;;;;;;;;;;;;;6177293;23;20083;-61
2022/06/29 15:02:28;;;;;;;3.70;1.50;;;;;;;;;;6176928;23;19920;-61
2022/06/29 15:05:02;;;;;;;3.30;1.60;;;;;;;;;;6176977;23;20025;-61
2022/06/29 15:07:29;;;;;;;7.03;1.95;;;;;;;;;;6175568;23;20402;-64
2022/06/29 15:09:57;;;;;;;2.35;1.30;;;;;;;;;;6176389;23;20079;-61
2022/06/29 15:12:31;;;;;;;4.05;1.42;;;;;;;;;;6176469;23;20033;-58
2022/06/29 15:14:59;;;;;;;3.88;1.48;;;;;;;;;;6176016;23;20434;-58
2022/06/29 15:17:26;;;;;;;4.88;1.67;;;;;;;;;;6174364;23;20191;-59
2022/06/29 15:20:01;;;;;;;2.70;1.20;;;;;;;;;;6176292;23;20033;-58
2022/06/29 15:22:28;;;;;;;6.05;1.08;;;;;;;;;;6174853;23;20542;-59
2022/06/29 15:24:55;;;;;;;;;;;;;;;;;;6176398;23;20021;-58
2022/06/29 15:27:29;;;;;;;4.32;1.35;;;;;;;;;;6173667;23;20291;-59
2022/06/29 15:29:56;;;;;;;5.63;1.40;;;;;;;;;;6176425;23;20634;-50
2022/06/29 15:32:23;;;;;;;5.53;1.50;;;;;;;;;;6177496;23;20021;-49
2022/06/29 15:40:37;;;;;;;3.90;1.40;;;;;;;;;;6177862;23;20021;-52
2022/06/29 15:43:16;;;;;;;4.00;1.40;;;;;;;;;;6177004;23;20155;-49
2022/06/29 15:45:51;;;;;;;5.05;1.23;;;;;;;;;;6123814;23;20029;-62
2022/06/29 15:48:18;;;;;;;3.38;1.13;;;;;;;;;;6147077;23;20479;-59
2022/06/29 15:50:45;;;;;;;;;;;;;;;;;;6148343;23;20475;-59
2022/06/29 15:56:06;;;;;;;1.63;1.10;;;;;;;;;;6148509;23;20026;-58
2022/06/29 15:58:40;;;;;;;2.80;1.40;;;;;;;;;;6148024;23;20025;-59
2022/06/29 16:01:07;;;;;;;;;;;;;;;;;;6149562;23;20060;-58
2022/06/29 16:03:34;;;;;;;2.13;1.20;;;;;;;;;;6147486;23;19920;-59
2022/06/29 16:06:08;;;;;;;1.70;0.80;;;;;;;;;;6149337;23;20025;-61
2022/06/29 16:08:35;;;;;;;;;;;;;;;;;;6148654;23;20029;-49
2022/06/29 16:11:03;;;;;;;5.32;1.10;;;;;;;;;;6146433;23;19943;-51
2022/06/29 16:13:37;;;;;;;5.15;1.40;;;;;;;;;;6146796;23;20356;-51
2022/06/29 16:16:04;;;;;;;;;;;;;;;;;;6149246;23;20060;-55
2022/06/29 16:18:31;;;;;;;4.45;1.10;;;;;;;;;;6148469;23;19920;-54
2022/06/29 16:21:06;;;;;;;3.85;1.30;;;;;;;;;;6147453;23;20041;-50
2022/06/29 16:23:34;;;;;;;2.50;1.13;;;;;;;;;;6145723;23;20337;-62
2022/06/29 16:26:01;;;;;;;1.98;1.17;;;;;;;;;;6144836;23;20063;-58
2022/06/29 16:28:36;;;;;;;3.30;1.20;;;;;;;;;;6147368;23;20022;-58
2022/06/29 16:31:03;;;;;;;2.30;1.00;;;;;;;;;;6148783;23;20025;-58
2022/06/29 16:33:31;;;;;;;3.35;1.25;;;;;;;;;;6145468;23;20021;-58
2022/06/29 16:36:05;;;;;;;2.90;1.30;;;;;;;;;;6146483;23;20056;-57
2022/06/29 16:38:32;;;;;;;;;;;;;;;;;;6147608;23;20060;-58
2022/06/29 16:40:59;;;;;;;5.18;1.45;;;;;;;;;;6147243;23;20411;-58
2022/06/29 16:43:45;;;;;;;3.78;1.08;;;;;;;;;;6153948;22;20023;-60
2022/06/29 16:46:20;;;;;;;3.88;1.20;;;;;;;;;;6152003;23;20548;-58
2022/06/29 16:49:00;;;;;;;3.55;1.27;;;;;;;;;;6173983;23;20613;-58
2022/06/29 16:51:32;;;;;;;6.07;1.20;;;;;;;;;;6177344;23;20079;-58
2022/06/29 16:54:26;;;;;;;2.53;1.15;;;;;;;;;;6174360;23;20104;-58
2022/06/29 16:56:54;;;;;;;8.65;1.55;;;;;;;;;;6177005;23;20028;-58
2022/06/29 16:59:28;;;;;;;5.85;1.58;;;;;;;;;;6152670;23;20091;-58
2022/06/29 17:01:56;;;;;;;3.53;1.25;;;;;;;;;;6176518;23;20402;-60
2022/06/29 17:04:23;;;;;;;5.68;1.45;;;;;;;;;;6176967;23;20025;-58
2022/06/29 17:06:58;;;;;;;2.97;1.33;;;;;;;;;;6174520;23;20095;-61
2022/06/29 17:09:25;;;;;;;;;;;;;;;;;;6173586;23;20057;-62
2022/06/29 17:11:53;;;;;;;2.45;0.98;;;;;;;;;;6177897;23;19983;-62
2022/06/29 17:14:27;;;;;;;3.15;0.98;;;;;;;;;;6175958;23;20060;-65
2022/06/29 17:16:54;;;;;;;1.88;0.93;;;;;;;;;;6177399;23;20362;-62
2022/06/29 17:19:21;;;;;;;2.95;1.00;;;;;;;;;;6175455;23;20025;-62
2022/06/29 17:21:55;;;;;;;4.00;1.48;;;;;;;;;;6175122;23;20062;-58
2022/06/29 17:24:22;;;;;;;4.88;1.10;;;;;;;;;;6176413;23;20081;-57
2022/06/29 17:26:49;;;;;;;2.83;1.00;;;;;;;;;;6177677;23;20025;-58
2022/06/29 17:29:24;;;;;;;3.67;1.42;;;;;;;;;;6171823;23;20461;-58
2022/06/29 17:31:52;;;;;;;3.20;1.30;;;;;;;;;;6145593;23;20033;-57
2022/06/29 17:34:19;;;;;;;5.05;1.40;;;;;;;;;;6173329;23;20446;-57
2022/06/29 17:36:53;;;;;;;3.00;1.13;;;;;;;;;;6174241;23;20059;-58
2022/06/29 17:39:20;;;;;;;4.18;1.13;;;;;;;;;;6173931;23;20100;-61
2022/06/29 17:41:48;;;;;;;3.40;1.48;;;;;;;;;;6175434;23;20161;-62
2022/06/29 17:44:34;;;;;;;2.42;1.23;;;;;;;;;;6176462;22;20028;-58
2022/06/29 17:47:09;;;;;;;4.10;1.42;;;;;;;;;;6164657;23;20032;-58
2022/06/29 17:49:43;;;;;;;2.58;1.08;;;;;;;;;;6172694;23;20344;-58
2022/06/29 17:52:10;;;;;;;10.40;1.45;;;;;;;;;;6172870;23;20032;-58
2022/06/29 17:54:37;;;;;;;3.92;1.23;;;;;;;;;;6172077;23;20029;-58
2022/06/29 17:57:14;;;;;;;4.53;1.20;;;;;;;;;;6173370;23;20082;-57
2022/06/29 17:59:41;;;;;;;4.63;1.60;;;;;;;;;;6173153;23;20029;-60
2022/06/29 18:02:09;;;;;;;2.55;1.80;;;;;;;;;;6174043;23;20087;-58
2022/06/29 18:04:43;;;;;;;3.15;1.35;;;;;;;;;;6173286;23;20032;-57
2022/06/29 18:07:11;;;;;;;4.22;1.83;;;;;;;;;;6173110;23;20053;-57
2022/06/29 18:09:38;;;;;;;;;;;;;;;;;;6173877;23;20063;-57
2022/06/29 18:12:12;;;;;;;5.75;2.45;;;;;;;;;;6174455;23;19920;-57
2022/06/29 18:14:39;;;;;;;;;;;;;;;;;;6174989;23;20021;-58
2022/06/29 18:17:14;;;;;;;3.75;1.50;;;;;;;;;;6172064;23;19919;-57
2022/06/29 18:19:48;;;;;;;4.45;1.90;;;;;;;;;;6173726;23;20033;-53
2022/06/29 18:22:15;;;;;;;;;;;;;;;;;;6172654;23;20024;-58
2022/06/29 18:24:43;;;;;;;3.05;1.25;;;;;;;;;;6170713;23;19963;-58
2022/06/29 18:27:17;;;;;;;3.00;1.23;;;;;;;;;;6173567;23;20029;-58
2022/06/29 18:29:44;;;;;;;;;;;;;;;;;;6173049;23;20579;-58
2022/06/29 18:32:13;;;;;;;4.55;1.50;;;;;;;;;;6173419;23;20290;-58
2022/06/29 18:34:48;;;;;;;4.28;1.40;;;;;;;;;;6170785;23;20021;-58
2022/06/29 18:37:15;;;;;;;6.05;1.38;;;;;;;;;;6173423;23;20029;-50
2022/06/29 18:39:47;;;;;;;;;;;;;;;;;;6173302;23;20029;-61
2022/06/29 18:42:21;;;;;;;4.03;1.52;;;;;;;;;;6172353;23;19920;-59
2022/06/29 18:44:54;;;;;;;;;;;;;;;;;;6175473;22;20087;-60
2022/06/29 18:47:36;;;;;;;3.10;1.48;;;;;;;;;;6170778;23;19920;-60
2022/06/29 18:50:03;;;;;;;3.05;1.38;;;;;;;;;;6173465;23;20363;-59
2022/06/29 18:52:37;;;;;;;7.18;1.75;;;;;;;;;;6173432;23;20060;-59
2022/06/29 18:55:05;;;;;;;5.88;1.50;;;;;;;;;;6172770;23;20017;-60
2022/06/29 18:57:32;;;;;;;;;;;;;;;;;;6171221;23;20033;-57
2022/06/29 19:00:07;;;;;;;4.40;1.63;;;;;;;;;;6172841;23;20373;-61
2022/06/29 19:02:34;;;;;;;4.03;1.80;;;;;;;;;;6173010;23;20434;-61
2022/06/29 19:05:02;;;;;;;3.65;1.50;;;;;;;;;;6173019;23;20025;-61
2022/06/29 19:07:36;;;;;;;4.88;1.45;;;;;;;;;;6174160;23;20060;-61
2022/06/29 19:10:03;;;;;;;2.25;1.23;;;;;;;;;;6175084;23;20216;-62
2022/06/29 19:12:31;;;;;;;;;;;;;;;;;;6172908;23;20108;-62
2022/06/29 19:15:05;;;;;;;4.47;1.60;;;;;;;;;;6166660;23;19951;-60
2022/06/29 19:17:32;;;;;;;;;;;;;;;;;;6174481;23;20501;-58
2022/06/29 19:20:00;;;;;;;3.65;1.48;;;;;;;;;;6174596;23;20161;-50
2022/06/29 19:22:34;;;;;;;9.35;2.22;;;;;;;;;;6174523;23;20368;-53
2022/06/29 19:25:01;;;;;;;4.05;1.70;;;;;;;;;;6171962;23;20132;-53
2022/06/29 19:27:29;;;;;;;4.47;1.35;;;;;;;;;;6175395;23;20056;-49
2022/06/29 19:30:03;;;;;;;4.30;1.65;;;;;;;;;;6175745;23;20024;-50
2022/06/29 19:32:30;;;;;;;;;;;;;;;;;;6175466;23;20064;-50
2022/06/29 19:34:58;;;;;;;2.55;1.40;;;;;;;;;;6174723;23;19927;-62
2022/06/29 19:37:32;;;;;;;4.05;1.90;;;;;;;;;;6150943;23;20072;-62
2022/06/29 19:39:59;;;;;;;4.30;2.08;;;;;;;;;;6174519;23;20095;-62
2022/06/29 19:42:27;;;;;;;4.13;1.45;;;;;;;;;;6172987;23;20033;-62
2022/06/29 19:45:08;;;;;;;5.63;1.42;;;;;;;;;;6177061;22;20352;-62
2022/06/29 19:47:35;;;;;;;4.03;1.58;;;;;;;;;;6173922;23;20033;-62
2022/06/29 19:50:09;;;;;;;4.03;1.65;;;;;;;;;;6173670;23;20079;-62
2022/06/29 19:52:36;;;;;;;5.05;1.48;;;;;;;;;;6173485;23;20056;-62
2022/06/29 19:55:04;;;;;;;5.85;1.80;;;;;;;;;;6147550;23;20049;-59
2022/06/29 19:57:38;;;;;;;4.43;1.35;;;;;;;;;;6171191;23;20029;-60
2022/06/29 20:00:06;;;;;;;6.93;1.83;;;;;;;;;;6175006;23;20067;-60
2022/06/29 20:02:33;;;;;;;;;;;;;;;;;;6174276;23;20079;-60
2022/06/29 20:05:07;;;;;;;3.58;1.45;;;;;;;;;;6174328;23;19966;-61
2022/06/29 20:07:34;;;;;;;6.47;1.75;;;;;;;;;;6175040;23;20083;-62
2022/06/29 20:10:02;;;;;;;5.00;1.48;;;;;;;;;;6174936;23;20048;-61
2022/06/29 20:12:36;;;;;;;6.97;2.10;;;;;;;;;;6174077;23;20035;-62
2022/06/29 20:15:03;;;;;;;5.38;1.85;;;;;;;;;;6173417;23;20231;-58
2022/06/29 20:17:39;;;;;;;7.47;1.63;;;;;;;;;;6173900;23;20234;-62
2022/06/29 20:20:13;;;;;;;6.43;1.98;;;;;;;;;;6174187;23;20496;-62
2022/06/29 20:22:41;;;;;;;4.40;1.83;;;;;;;;;;6173186;23;20413;-61
2022/06/29 20:25:08;;;;;;;4.78;1.63;;;;;;;;;;6171876;23;20057;-62
2022/06/29 20:27:42;;;;;;;5.22;1.73;;;;;;;;;;6173938;23;20029;-61
2022/06/29 20:30:10;;;;;;;6.85;1.92;;;;;;;;;;6175169;23;20079;-62
2022/06/29 20:32:37;;;;;;;5.55;2.00;;;;;;;;;;6174596;23;20490;-58
2022/06/29 20:35:11;;;;;;;5.53;2.15;;;;;;;;;;6173481;23;20091;-48
2022/06/29 20:37:38;;;;;;;8.07;1.90;;;;;;;;;;6172686;23;20374;-45
2022/06/29 20:40:06;;;;;;;7.80;2.00;;;;;;;;;;6173343;23;20130;-47
2022/06/29 20:42:40;;;;;;;5.43;1.90;;;;;;;;;;6174859;23;20096;-47
2022/06/29 20:45:20;;;;;;;5.10;1.90;;;;;;;;;;6176540;22;20021;-45
2022/06/29 20:47:55;;;;;;;6.53;1.98;;;;;;;;;;6173114;23;20498;-45
2022/06/29 20:50:27;;;;;;;5.65;1.90;;;;;;;;;;6174576;23;20091;-47
2022/06/29 20:53:01;;;;;;;6.63;1.80;;;;;;;;;;6173480;23;20401;-61
2022/06/29 20:55:29;;;;;;;7.45;2.15;;;;;;;;;;6174729;23;20021;-47
2022/06/29 20:57:56;;;;;;;8.68;2.40;;;;;;;;;;6174630;23;20071;-46
2022/06/29 21:00:30;;;;;;;5.05;1.80;;;;;;;;;;6174635;23;20032;-47
2022/06/29 21:02:57;;;;;;;6.32;2.03;;;;;;;;;;6174798;23;20025;-47
2022/06/29 21:05:26;;;;;;;5.55;1.90;;;;;;;;;;6173925;23;20083;-48
2022/06/29 21:08:00;;;;;;;4.20;2.08;;;;;;;;;;6174615;23;20044;-49
2022/06/29 21:10:27;;;;;;;7.18;1.92;;;;;;;;;;6172318;23;20033;-61